Forestville, PA

4:18 PM EST on December 15, 2019 (GMT -0500)
Grove City | | Change Station

Elev 1250 ft 41.12 °N, 80.11 °W | Updated 24 seconds ago

Overcast
Overcast
31.3 °F
Feels Like 31 °F
N
3
Wind Variable Wind from West
Gusts 3.0 mph

Today
High -- | Low -- °F
--% Chance of Precip.
Yesterday
High -- | Low -- °F
Precip. -- in
Pressure 30.20 in
Visibility 10.0 miles
Clouds Overcast 4100 ft
Windchill 31 °F
Dew Point 25 °F
Humidity 76%
Rainfall 0.02 in
Snow Depth Not available.
7:37 AM 4:52 PM
Waning Gibbous, 84% visible
METAR KUCP 152056Z AUTO 25007KT 10SM OVC041 M01/M06 A3012 RMK AO2 SLP225 T10061061 53021
Pressure 30.20 in
Visibility 10.0 miles
Clouds Overcast 4100 ft
Windchill 31 °F
Dew Point 25 °F
Humidity 76%
Rainfall 0.02 in
Snow Depth Not available.
7:37 AM 4:52 PM
Waning Gibbous, 84% visible
METAR KUCP 152056Z AUTO 25007KT 10SM OVC041 M01/M06 A3012 RMK AO2 SLP225 T10061061 53021

Get Severe Weather Alerts

Thanks for signing up!

Be on the lookout for a verification email in your inbox.

You'll start receiving the daily forecast at 6 AM.

×

10-Day Weather Forecast

Almanac

Astronomy

Dec. 15, 2019 Rise Set
Actual Time
Civil Twilight
Nautical Twilight
Astronomical Twilight
Moon
Length of Visible Light
Length of Day
Tomorrow will be .
, % of the Moon is Illuminated

Today's Extremes

State Highs State Lows

Community

WunderPhotos

Category 6

Welcome to Category 6. This is the collective home for Weather Underground's featured writeups by Dr. Jeff Masters (right), Bob Henson (left), Chris Burt, and other regular contributors.

Nearby

Air Quality

  Air Quality AQ Index Pollutant
Not available.

Snow Depth

Station Depth Elevation

Earthquake Activity

City Distance Mag. Time & Date
Minimum magnitude displayed is 2.5.

Coastal Water Temperatures

Place Temperature

Stations

Nearby Weather Stations

Station Location Temp. Windchill Dew Point Humidity Wind Precip. Elev Updated Type
                   

Watches & Warnings

There are currently no watches in effect.